createdAt,value
2019-01-20T00:01:21.457Z,99767.00
2019-01-20T00:03:54.171Z,99768.00
2019-01-20T00:06:23.845Z,99771.00
2019-01-20T00:08:53.558Z,99773.00
2019-01-20T00:11:24.226Z,99773.00
2019-01-20T00:13:54.137Z,99784.00
2019-01-20T00:16:23.827Z,99770.00
2019-01-20T00:18:55.391Z,99784.00
2019-01-20T00:21:25.078Z,99786.00
2019-01-20T00:23:54.869Z,99786.00
2019-01-20T00:26:24.747Z,99788.00
2019-01-20T00:28:54.408Z,99794.00
2019-01-20T00:31:24.168Z,99789.00
2019-01-20T00:33:53.866Z,99794.00
2019-01-20T00:36:23.537Z,99789.00
2019-01-20T00:38:53.296Z,99794.00
2019-01-20T00:41:24.416Z,99800.00
2019-01-20T00:43:54.344Z,99797.00
2019-01-20T00:46:24.034Z,99797.00
2019-01-20T00:48:55.515Z,99793.00
2019-01-20T00:51:25.463Z,99805.00
2019-01-20T00:53:55.149Z,99795.00
2019-01-20T00:56:25.108Z,99795.00
2019-01-20T00:58:54.838Z,99800.00
2019-01-20T01:01:24.643Z,99801.00
2019-01-20T01:03:54.566Z,99800.00
2019-01-20T01:06:24.245Z,99792.00
2019-01-20T01:08:53.939Z,99790.00
2019-01-20T01:11:23.603Z,99790.00
2019-01-20T01:13:53.389Z,99796.00
2019-01-20T01:16:23.147Z,99794.00
2019-01-20T01:18:52.898Z,99793.00
2019-01-20T01:21:22.557Z,99794.00
2019-01-20T01:23:52.314Z,99792.00
2019-01-20T01:26:22.146Z,99800.00
2019-01-20T01:28:51.877Z,99800.00
2019-01-20T01:31:21.677Z,99799.00
2019-01-20T01:33:52.821Z,99801.00
2019-01-20T01:36:22.502Z,99806.00
2019-01-20T01:38:52.181Z,99818.00
2019-01-20T01:41:21.838Z,99809.00
2019-01-20T01:43:52.616Z,99821.00
2019-01-20T01:46:22.383Z,99809.00
2019-01-20T01:48:52.051Z,99838.00
2019-01-20T01:51:21.730Z,99825.00
2019-01-20T01:53:51.415Z,99839.00
2019-01-20T01:56:21.087Z,99833.00
2019-01-20T01:58:50.763Z,99838.00
2019-01-20T02:01:21.971Z,99832.00
2019-01-20T02:03:51.633Z,99840.00
2019-01-20T02:06:21.308Z,99851.00
2019-01-20T02:08:51.001Z,99851.00
2019-01-20T02:11:20.740Z,99857.00
2019-01-20T02:13:50.406Z,99860.00
2019-01-20T02:16:20.093Z,99865.00
2019-01-20T02:18:49.890Z,99871.00
2019-01-20T02:21:19.602Z,99870.00
2019-01-20T02:23:49.478Z,99867.00
2019-01-20T02:26:19.134Z,99881.00
2019-01-20T02:28:49.086Z,99875.00
2019-01-20T02:31:18.826Z,99873.00
2019-01-20T02:33:48.483Z,99876.00
2019-01-20T02:36:18.144Z,99882.00
2019-01-20T02:38:47.909Z,99885.00
2019-01-20T02:41:17.582Z,99888.00
2019-01-20T02:43:47.277Z,99878.00
2019-01-20T02:46:16.956Z,99882.00
2019-01-20T02:48:48.082Z,99886.00
2019-01-20T02:51:17.744Z,99880.00
2019-01-20T02:53:47.442Z,99885.00
2019-01-20T02:56:17.181Z,99897.00
2019-01-20T02:58:46.839Z,99893.00
2019-01-20T03:01:16.530Z,99890.00
2019-01-20T03:03:46.207Z,99898.00
2019-01-20T03:06:15.984Z,99888.00
2019-01-20T03:08:45.690Z,99888.00
2019-01-20T03:11:15.440Z,99877.00
2019-01-20T03:13:45.096Z,99888.00
2019-01-20T03:16:14.797Z,99898.00
2019-01-20T03:18:44.922Z,99897.00
2019-01-20T03:21:14.735Z,99910.00
2019-01-20T03:23:44.427Z,99911.00
2019-01-20T03:26:14.090Z,99914.00
2019-01-20T03:28:44.349Z,99907.00
2019-01-20T03:31:14.050Z,99913.00
2019-01-20T03:33:43.725Z,99922.00
2019-01-20T03:36:13.401Z,99915.00
2019-01-20T03:38:43.083Z,99915.00
2019-01-20T03:41:12.759Z,99908.00
2019-01-20T03:43:42.489Z,99916.00
2019-01-20T03:46:12.260Z,99921.00
2019-01-20T03:48:41.953Z,99920.00
2019-01-20T03:51:11.628Z,99920.00
2019-01-20T03:53:41.341Z,99920.00
2019-01-20T03:56:11.013Z,99924.00
2019-01-20T03:58:40.706Z,99921.00
2019-01-20T04:01:10.384Z,99926.00
2019-01-20T04:03:40.078Z,99933.00
2019-01-20T04:06:09.765Z,99923.00
2019-01-20T04:08:39.472Z,99923.00
2019-01-20T04:11:09.139Z,99920.00
2019-01-20T04:13:38.828Z,99931.00
2019-01-20T04:16:08.595Z,99925.00
2019-01-20T04:18:38.265Z,99933.00
2019-01-20T04:21:07.956Z,99933.00
2019-01-20T04:23:37.618Z,99934.00
2019-01-20T04:26:07.274Z,99932.00
2019-01-20T04:28:36.966Z,99868.00
2019-01-20T04:31:06.634Z,99930.00
2019-01-20T04:33:36.514Z,99932.00
2019-01-20T04:36:06.220Z,99931.00
2019-01-20T04:38:35.892Z,99940.00
2019-01-20T04:41:07.032Z,99947.00
2019-01-20T04:43:36.719Z,99932.00
2019-01-20T04:46:06.418Z,99937.00
2019-01-20T04:48:36.074Z,99946.00
2019-01-20T04:51:05.853Z,99949.00
2019-01-20T04:53:36.524Z,99950.00
2019-01-20T04:56:06.670Z,99951.00
2019-01-20T04:58:38.048Z,99959.00
2019-01-20T05:01:07.708Z,99954.00
2019-01-20T05:03:37.379Z,99950.00
2019-01-20T05:06:07.077Z,99956.00
2019-01-20T05:08:36.896Z,99964.00
2019-01-20T05:11:06.573Z,99957.00
2019-01-20T05:13:36.251Z,99968.00
2019-01-20T05:16:06.367Z,99970.00
2019-01-20T05:18:36.040Z,99969.00
2019-01-20T05:21:05.938Z,99968.00
2019-01-20T05:23:35.612Z,99977.00
2019-01-20T05:26:05.613Z,99976.00
2019-01-20T05:28:36.762Z,99988.00
2019-01-20T05:31:06.570Z,99984.00
2019-01-20T05:33:36.218Z,99994.00
2019-01-20T05:36:06.102Z,99994.00
2019-01-20T05:38:35.914Z,99992.00
2019-01-20T05:41:05.890Z,99997.00
2019-01-20T05:43:35.585Z,100003.00
2019-01-20T05:46:05.256Z,100006.00
2019-01-20T05:48:34.923Z,100008.00
2019-01-20T05:51:04.605Z,100003.00
2019-01-20T05:53:34.296Z,100008.00
2019-01-20T05:56:05.526Z,100012.00
2019-01-20T05:58:35.240Z,100007.00
2019-01-20T06:01:04.971Z,100014.00
2019-01-20T06:03:34.704Z,100022.00
2019-01-20T06:06:04.984Z,100030.00
2019-01-20T06:08:34.639Z,100026.00
2019-01-20T06:11:04.307Z,100028.00
2019-01-20T06:13:36.052Z,100030.00
2019-01-20T06:16:05.908Z,100036.00
2019-01-20T06:18:35.854Z,100043.00
2019-01-20T06:21:05.647Z,100044.00
2019-01-20T06:23:35.326Z,100050.00
2019-01-20T06:26:05.083Z,100049.00
2019-01-20T06:28:34.669Z,100054.00
2019-01-20T06:31:04.436Z,100057.00
2019-01-20T06:33:34.336Z,100049.00
2019-01-20T06:36:04.132Z,100062.00
2019-01-20T06:38:33.875Z,100064.00
2019-01-20T06:41:03.611Z,100065.00
2019-01-20T06:43:33.678Z,100078.00
2019-01-20T06:46:03.354Z,100073.00
2019-01-20T06:48:33.037Z,100088.00
2019-01-20T06:51:02.731Z,100090.00
2019-01-20T06:53:32.422Z,100087.00
2019-01-20T06:56:02.071Z,100085.00
2019-01-20T06:58:31.765Z,100083.00
2019-01-20T07:01:01.434Z,100096.00
2019-01-20T07:03:31.097Z,100100.00
2019-01-20T07:06:00.783Z,100096.00
2019-01-20T07:08:30.645Z,100106.00
2019-01-20T07:11:00.385Z,100108.00
2019-01-20T07:13:30.862Z,100104.00
2019-01-20T07:16:00.525Z,100112.00
2019-01-20T07:18:30.190Z,100115.00
2019-01-20T07:20:59.872Z,100121.00
2019-01-20T07:23:29.550Z,100121.00
2019-01-20T07:25:59.284Z,100123.00
2019-01-20T07:28:28.969Z,100130.00
2019-01-20T07:30:58.644Z,100131.00
2019-01-20T07:33:28.586Z,100136.00
2019-01-20T07:35:58.276Z,100132.00
2019-01-20T07:38:27.947Z,100134.00
2019-01-20T07:40:57.606Z,100146.00
2019-01-20T07:43:27.295Z,100144.00
2019-01-20T07:45:57.219Z,100147.00
2019-01-20T07:48:26.928Z,100161.00
2019-01-20T07:50:56.774Z,100169.00
2019-01-20T07:53:28.195Z,100174.00
2019-01-20T07:55:57.943Z,100178.00
2019-01-20T07:58:27.633Z,100175.00
2019-01-20T08:00:58.004Z,100184.00
2019-01-20T08:03:28.048Z,100193.00
2019-01-20T08:05:57.728Z,100199.00
2019-01-20T08:08:27.395Z,100198.00
2019-01-20T08:10:57.059Z,100200.00
2019-01-20T08:13:26.767Z,100201.00
2019-01-20T08:15:56.446Z,100210.00
2019-01-20T08:18:26.114Z,100218.00
2019-01-20T08:20:55.811Z,100222.00
2019-01-20T08:23:25.481Z,100228.00
2019-01-20T08:25:55.229Z,100229.00
2019-01-20T08:28:24.927Z,100241.00
2019-01-20T08:30:54.602Z,100240.00
2019-01-20T08:33:24.342Z,100248.00
2019-01-20T08:35:54.339Z,100250.00
2019-01-20T08:38:24.094Z,100253.00
2019-01-20T08:40:53.825Z,100262.00
2019-01-20T08:43:23.769Z,100266.00
2019-01-20T08:46:06.542Z,100266.00
2019-01-20T08:48:36.233Z,100270.00
2019-01-20T08:51:08.832Z,100269.00
2019-01-20T08:53:38.495Z,100275.00
2019-01-20T08:56:08.183Z,100275.00
2019-01-20T08:58:37.848Z,100276.00
2019-01-20T09:01:07.529Z,100288.00
2019-01-20T09:03:37.541Z,100289.00
2019-01-20T09:06:07.213Z,100294.00
2019-01-20T09:08:37.025Z,100301.00
2019-01-20T09:11:06.712Z,100302.00
2019-01-20T09:13:39.828Z,100305.00
2019-01-20T09:16:07.923Z,100309.00
2019-01-20T09:18:37.609Z,100312.00
2019-01-20T09:21:07.276Z,100311.00
2019-01-20T09:23:37.122Z,100306.00
2019-01-20T09:26:06.808Z,100302.00
2019-01-20T09:28:36.471Z,100304.00
2019-01-20T09:31:06.132Z,100310.00
2019-01-20T09:33:35.826Z,100314.00
2019-01-20T09:36:05.494Z,100326.00
2019-01-20T09:38:35.147Z,100334.00
2019-01-20T09:41:05.314Z,100346.00
2019-01-20T09:43:35.254Z,100346.00
2019-01-20T09:46:06.479Z,100348.00
2019-01-20T09:48:37.776Z,100348.00
2019-01-20T09:51:07.609Z,100360.00
2019-01-20T09:53:37.273Z,100361.00
2019-01-20T09:56:07.079Z,100373.00
2019-01-20T09:58:36.754Z,100369.00
2019-01-20T10:01:06.662Z,100382.00
2019-01-20T10:03:36.350Z,100377.00
2019-01-20T10:06:08.057Z,100380.00
2019-01-20T10:08:37.824Z,100385.00
2019-01-20T10:11:07.515Z,100399.00
2019-01-20T10:13:37.256Z,100389.00
2019-01-20T10:16:06.973Z,100407.00
2019-01-20T10:18:36.678Z,100413.00
2019-01-20T10:21:06.443Z,100413.00
2019-01-20T10:23:36.104Z,100402.00
2019-01-20T10:26:05.909Z,100416.00
2019-01-20T10:28:35.691Z,100418.00
2019-01-20T10:31:06.069Z,100416.00
2019-01-20T10:33:35.853Z,100430.00
2019-01-20T10:36:05.909Z,100437.00
2019-01-20T10:38:37.398Z,100441.00
2019-01-20T10:41:07.448Z,100443.00
2019-01-20T10:43:37.319Z,100448.00
2019-01-20T10:46:07.086Z,100437.00
2019-01-20T10:48:36.815Z,100442.00
2019-01-20T10:51:06.703Z,100448.00
2019-01-20T10:53:36.395Z,100450.00
2019-01-20T10:56:06.467Z,100442.00
2019-01-20T10:58:36.393Z,100453.00
2019-01-20T11:01:06.346Z,100451.00
2019-01-20T11:03:36.053Z,100443.00
2019-01-20T11:06:06.219Z,100453.00
2019-01-20T11:08:35.940Z,100449.00
2019-01-20T11:11:06.056Z,100456.00
2019-01-20T11:13:35.723Z,100456.00
2019-01-20T11:16:05.413Z,100464.00
2019-01-20T11:18:35.122Z,100451.00
2019-01-20T11:21:04.995Z,100449.00
2019-01-20T11:23:35.233Z,100456.00
2019-01-20T11:26:05.201Z,100454.00
2019-01-20T11:28:34.962Z,100448.00
2019-01-20T11:31:04.719Z,100462.00
2019-01-20T11:33:34.648Z,100461.00
2019-01-20T11:36:04.388Z,100454.00
2019-01-20T11:38:34.064Z,100450.00
2019-01-20T11:41:04.151Z,100450.00
2019-01-20T11:43:33.816Z,100459.00
2019-01-20T11:46:03.497Z,100462.00
2019-01-20T11:48:33.205Z,100457.00
2019-01-20T11:51:02.885Z,100461.00
2019-01-20T11:53:32.557Z,100466.00
2019-01-20T11:56:03.090Z,100467.00
2019-01-20T11:58:32.790Z,100465.00
2019-01-20T12:01:02.727Z,100463.00
2019-01-20T12:03:32.494Z,100464.00
2019-01-20T12:06:02.161Z,100470.00
2019-01-20T12:08:33.830Z,100463.00
2019-01-20T12:11:03.599Z,100465.00
2019-01-20T12:13:33.541Z,100465.00
2019-01-20T12:16:03.539Z,100476.00
2019-01-20T12:18:33.275Z,100473.00
2019-01-20T12:21:02.966Z,100480.00
2019-01-20T12:23:32.646Z,100480.00
2019-01-20T12:26:02.352Z,100477.00
2019-01-20T12:28:32.088Z,100475.00
2019-01-20T12:31:01.826Z,100475.00
2019-01-20T12:33:31.648Z,100476.00
2019-01-20T12:36:01.314Z,100482.00
2019-01-20T12:38:31.278Z,100479.00
2019-01-20T12:41:00.973Z,100481.00
2019-01-20T12:43:30.641Z,100485.00
2019-01-20T12:46:00.405Z,100489.00
2019-01-20T12:48:30.119Z,100482.00
2019-01-20T12:50:59.786Z,100494.00
2019-01-20T12:53:29.471Z,100478.00
2019-01-20T12:55:59.248Z,100490.00
2019-01-20T12:58:28.986Z,100493.00
2019-01-20T13:00:58.741Z,100493.00
2019-01-20T13:03:28.451Z,100489.00
2019-01-20T13:05:58.116Z,100483.00
2019-01-20T13:08:28.517Z,100488.00
2019-01-20T13:10:58.396Z,100489.00
2019-01-20T13:13:28.066Z,100498.00
2019-01-20T13:15:57.755Z,100496.00
2019-01-20T13:18:27.468Z,100496.00
2019-01-20T13:21:00.206Z,100492.00
2019-01-20T13:23:31.137Z,100500.00
2019-01-20T13:26:02.467Z,100495.00
2019-01-20T13:28:33.065Z,100501.00
2019-01-20T13:31:05.074Z,100497.00
2019-01-20T13:33:34.766Z,100499.00
2019-01-20T13:36:07.319Z,100499.00
2019-01-20T13:38:36.160Z,100508.00
2019-01-20T13:41:05.866Z,100507.00
2019-01-20T13:43:35.536Z,100508.00
2019-01-20T13:46:05.529Z,100510.00
2019-01-20T13:48:35.351Z,100516.00
2019-01-20T13:51:06.039Z,100515.00
2019-01-20T13:53:35.794Z,100514.00
2019-01-20T13:56:05.892Z,100518.00
2019-01-20T13:58:35.581Z,100529.00
2019-01-20T14:01:05.659Z,100525.00
2019-01-20T14:03:35.369Z,100530.00
2019-01-20T14:06:05.640Z,100527.00
2019-01-20T14:08:35.434Z,100525.00
2019-01-20T14:11:05.422Z,100531.00
2019-01-20T14:13:35.090Z,100532.00
2019-01-20T14:16:08.491Z,100540.00
2019-01-20T14:18:45.366Z,100539.00
2019-01-20T14:21:17.455Z,100541.00
2019-01-20T14:23:47.122Z,100544.00
2019-01-20T14:26:16.793Z,100549.00
2019-01-20T14:28:46.759Z,100551.00
2019-01-20T14:31:16.468Z,100548.00
2019-01-20T14:33:46.143Z,100550.00
2019-01-20T14:36:15.827Z,100553.00
2019-01-20T14:38:45.537Z,100548.00
2019-01-20T14:41:15.217Z,100552.00
2019-01-20T14:43:44.892Z,100552.00
2019-01-20T14:46:14.768Z,100562.00
2019-01-20T14:48:44.448Z,100560.00
2019-01-20T14:51:14.931Z,100561.00
2019-01-20T14:53:44.707Z,100574.00
2019-01-20T14:56:15.860Z,100575.00
2019-01-20T14:58:45.733Z,100578.00
2019-01-20T15:01:15.448Z,100577.00
2019-01-20T15:03:46.536Z,100586.00
2019-01-20T15:06:16.338Z,100590.00
2019-01-20T15:08:46.048Z,100581.00
2019-01-20T15:11:15.798Z,100587.00
2019-01-20T15:13:45.458Z,100600.00
2019-01-20T15:16:15.158Z,100593.00
2019-01-20T15:18:44.847Z,100595.00
2019-01-20T15:21:14.580Z,100599.00
2019-01-20T15:23:44.360Z,100610.00
2019-01-20T15:26:14.038Z,100600.00
2019-01-20T15:28:43.788Z,100603.00
2019-01-20T15:31:13.503Z,100605.00
2019-01-20T15:33:43.172Z,100609.00
2019-01-20T15:36:13.217Z,100616.00
2019-01-20T15:38:42.989Z,100610.00
2019-01-20T15:41:12.671Z,100606.00
2019-01-20T15:43:43.989Z,100614.00
2019-01-20T15:46:13.687Z,100615.00
2019-01-20T15:48:43.432Z,100629.00
2019-01-20T15:51:13.103Z,100624.00
2019-01-20T15:53:42.796Z,100637.00
2019-01-20T15:56:12.481Z,100630.00
2019-01-20T15:58:42.155Z,100631.00
2019-01-20T16:01:11.927Z,100636.00
2019-01-20T16:03:41.624Z,100638.00
2019-01-20T16:06:11.292Z,100635.00
2019-01-20T16:08:40.996Z,100637.00
2019-01-20T16:11:10.742Z,100636.00
2019-01-20T16:13:40.423Z,100642.00
2019-01-20T16:16:10.483Z,100643.00
2019-01-20T16:18:40.318Z,100648.00
2019-01-20T16:21:10.060Z,100652.00
2019-01-20T16:23:39.975Z,100663.00
2019-01-20T16:26:09.657Z,100670.00
2019-01-20T16:28:39.320Z,100672.00
2019-01-20T16:31:10.354Z,100674.00
2019-01-20T16:33:40.033Z,100667.00
2019-01-20T16:36:09.795Z,100678.00
2019-01-20T16:38:40.363Z,100675.00
2019-01-20T16:41:10.306Z,100686.00
2019-01-20T16:43:39.977Z,100686.00
2019-01-20T16:46:09.684Z,100682.00
2019-01-20T16:48:39.567Z,100684.00
2019-01-20T16:51:09.250Z,100692.00
2019-01-20T16:53:38.957Z,100702.00
2019-01-20T16:56:08.628Z,100702.00
2019-01-20T16:58:38.288Z,100700.00
2019-01-20T17:01:07.987Z,100704.00
2019-01-20T17:03:37.648Z,100706.00
2019-01-20T17:06:07.381Z,100700.00
2019-01-20T17:08:37.071Z,100700.00
2019-01-20T17:11:06.732Z,100703.00
2019-01-20T17:13:36.694Z,100695.00
2019-01-20T17:16:06.602Z,100701.00
2019-01-20T17:18:36.388Z,100699.00
2019-01-20T17:21:06.068Z,100711.00
2019-01-20T17:23:35.780Z,100703.00
2019-01-20T17:26:05.561Z,100699.00
2019-01-20T17:28:35.414Z,100713.00
2019-01-20T17:31:05.785Z,100719.00
2019-01-20T17:33:35.643Z,100714.00
2019-01-20T17:36:05.410Z,100718.00
2019-01-20T17:38:35.102Z,100721.00
2019-01-20T17:41:04.775Z,100728.00
2019-01-20T17:43:34.806Z,100728.00
2019-01-20T17:46:08.206Z,100724.00
2019-01-20T17:48:37.877Z,100727.00
2019-01-20T17:51:07.564Z,100732.00
2019-01-20T17:53:37.493Z,100738.00
2019-01-20T17:56:07.314Z,100728.00
2019-01-20T17:58:37.051Z,100737.00
2019-01-20T18:01:08.406Z,100739.00
2019-01-20T18:03:38.070Z,100754.00
2019-01-20T18:06:07.942Z,100756.00
2019-01-20T18:08:40.558Z,100751.00
2019-01-20T18:11:10.323Z,100755.00
2019-01-20T18:13:39.989Z,100752.00
2019-01-20T18:16:09.685Z,100753.00
2019-01-20T18:18:39.423Z,100754.00
2019-01-20T18:21:09.079Z,100770.00
2019-01-20T18:23:40.844Z,100766.00
2019-01-20T18:26:10.462Z,100768.00
2019-01-20T18:28:40.188Z,100781.00
2019-01-20T18:31:09.880Z,100785.00
2019-01-20T18:33:39.557Z,100787.00
2019-01-20T18:36:10.777Z,100782.00
2019-01-20T18:38:40.463Z,100783.00
2019-01-20T18:41:10.187Z,100781.00
2019-01-20T18:43:42.260Z,100788.00
2019-01-20T18:46:13.593Z,100794.00
2019-01-20T18:48:43.268Z,100796.00
2019-01-20T18:51:12.936Z,100793.00
2019-01-20T18:53:42.631Z,100784.00
2019-01-20T18:56:12.378Z,100809.00
2019-01-20T18:58:42.279Z,100805.00
2019-01-20T19:01:12.384Z,100799.00
2019-01-20T19:03:42.120Z,100801.00
2019-01-20T19:06:12.474Z,100805.00
2019-01-20T19:08:42.213Z,100803.00
2019-01-20T19:11:12.020Z,100819.00
2019-01-20T19:13:41.666Z,100820.00
2019-01-20T19:16:11.775Z,100829.00
2019-01-20T19:18:41.517Z,100830.00
2019-01-20T19:21:11.180Z,100823.00
2019-01-20T19:23:40.875Z,100829.00
2019-01-20T19:26:12.171Z,100828.00
2019-01-20T19:28:42.106Z,100823.00
2019-01-20T19:31:11.823Z,100824.00
2019-01-20T19:33:41.478Z,100834.00
2019-01-20T19:36:11.167Z,100853.00
2019-01-20T19:38:51.816Z,100850.00
2019-01-20T19:41:21.503Z,100844.00
2019-01-20T19:43:51.197Z,100853.00
2019-01-20T19:46:20.871Z,100852.00
2019-01-20T19:48:50.532Z,100845.00
2019-01-20T19:51:21.755Z,100855.00
2019-01-20T19:53:51.415Z,100851.00
2019-01-20T19:56:22.768Z,100854.00
2019-01-20T19:58:52.599Z,100857.00
2019-01-20T20:01:30.602Z,100865.00
2019-01-20T20:03:55.129Z,100866.00
2019-01-20T20:06:24.851Z,100857.00
2019-01-20T20:08:55.696Z,100866.00
2019-01-20T20:11:25.419Z,100867.00
2019-01-20T20:13:55.121Z,100880.00
2019-01-20T20:16:24.767Z,100884.00
2019-01-20T20:18:54.443Z,100878.00
2019-01-20T20:21:24.128Z,100886.00
2019-01-20T20:23:54.113Z,100893.00
2019-01-20T20:26:23.885Z,100889.00
2019-01-20T20:28:53.591Z,100894.00
2019-01-20T20:31:23.252Z,100904.00
2019-01-20T20:33:53.050Z,100903.00
2019-01-20T20:36:22.855Z,100903.00
2019-01-20T20:38:52.527Z,100898.00
2019-01-20T20:41:22.192Z,100907.00
2019-01-20T20:43:51.903Z,100901.00
2019-01-20T20:46:21.710Z,100905.00
2019-01-20T20:48:51.449Z,100910.00
2019-01-20T20:51:22.249Z,100911.00
2019-01-20T20:53:52.146Z,100909.00
2019-01-20T20:56:21.808Z,100914.00
2019-01-20T20:58:52.982Z,100915.00
2019-01-20T21:01:22.648Z,100923.00
2019-01-20T21:03:52.393Z,100909.00
2019-01-20T21:06:22.089Z,100922.00
2019-01-20T21:08:51.751Z,100923.00
2019-01-20T21:11:21.420Z,100919.00
2019-01-20T21:13:51.122Z,100918.00
2019-01-20T21:16:20.858Z,100920.00
2019-01-20T21:18:50.567Z,100925.00
2019-01-20T21:21:20.283Z,100920.00
2019-01-20T21:23:49.943Z,100928.00
2019-01-20T21:26:22.449Z,100931.00
2019-01-20T21:28:52.195Z,100934.00
2019-01-20T21:31:21.683Z,100928.00
2019-01-20T21:33:51.450Z,100925.00
2019-01-20T21:36:21.131Z,100924.00
2019-01-20T21:38:50.893Z,100934.00
2019-01-20T21:41:21.746Z,100935.00
2019-01-20T21:43:51.422Z,100921.00
2019-01-20T21:46:21.088Z,100929.00
2019-01-20T21:48:51.186Z,100929.00
2019-01-20T21:51:21.438Z,100931.00
2019-01-20T21:53:52.314Z,100926.00
2019-01-20T21:56:21.983Z,100929.00
2019-01-20T21:58:51.796Z,100927.00
2019-01-20T22:01:21.467Z,100929.00
2019-01-20T22:03:53.652Z,100927.00
2019-01-20T22:06:23.324Z,100928.00
2019-01-20T22:08:54.454Z,100928.00
2019-01-20T22:11:24.153Z,100925.00
2019-01-20T22:13:53.898Z,100927.00
2019-01-20T22:16:23.657Z,100923.00
2019-01-20T22:18:53.352Z,100927.00
2019-01-20T22:21:23.087Z,100938.00
2019-01-20T22:23:54.233Z,100935.00
2019-01-20T22:26:23.939Z,100945.00
2019-01-20T22:28:53.663Z,100953.00
2019-01-20T22:31:23.329Z,100963.00
2019-01-20T22:33:53.172Z,100958.00
2019-01-20T22:36:22.859Z,100958.00
2019-01-20T22:38:52.520Z,100952.00
2019-01-20T22:41:22.408Z,100950.00
2019-01-20T22:43:52.115Z,100962.00
2019-01-20T22:46:22.511Z,100958.00
2019-01-20T22:48:52.770Z,100970.00
2019-01-20T22:51:22.456Z,100971.00
2019-01-20T22:53:52.345Z,100983.00
2019-01-20T22:56:23.905Z,100979.00
2019-01-20T22:58:54.681Z,100983.00
2019-01-20T23:01:25.158Z,100995.00
2019-01-20T23:03:56.405Z,100988.00
2019-01-20T23:06:27.571Z,101002.00
2019-01-20T23:08:57.215Z,101004.00
2019-01-20T23:11:28.367Z,101024.00
2019-01-20T23:13:58.130Z,101031.00
2019-01-20T23:16:27.830Z,101018.00
2019-01-20T23:18:58.898Z,101019.00
2019-01-20T23:21:31.191Z,101023.00
2019-01-20T23:24:00.887Z,101013.00
2019-01-20T23:26:30.648Z,101008.00
2019-01-20T23:29:00.311Z,101020.00
2019-01-20T23:31:29.989Z,101015.00
2019-01-20T23:34:01.167Z,101009.00
2019-01-20T23:36:30.839Z,101010.00
2019-01-20T23:39:00.505Z,101013.00
2019-01-20T23:41:31.886Z,101013.00
2019-01-20T23:44:01.620Z,101018.00
2019-01-20T23:46:31.469Z,101025.00
2019-01-20T23:49:01.173Z,101019.00
2019-01-20T23:51:30.847Z,101020.00
2019-01-20T23:54:00.503Z,101024.00
2019-01-20T23:56:30.213Z,101026.00
2019-01-20T23:58:59.947Z,101021.00
